sensor_id;sensor_type;location;lat;lon;timestamp;P1;durP1;ratioP1;P2;durP2;ratioP2
11839;SDS011;5979;50.800;4.904;2022-08-19T00:00:35;17.83;;;15.98;;
11839;SDS011;5979;50.800;4.904;2022-08-19T00:03:02;16.90;;;15.40;;
11839;SDS011;5979;50.800;4.904;2022-08-19T00:05:28;17.83;;;16.02;;
11839;SDS011;5979;50.800;4.904;2022-08-19T00:07:54;17.13;;;14.95;;
11839;SDS011;5979;50.800;4.904;2022-08-19T00:10:19;15.35;;;13.90;;
11839;SDS011;5979;50.800;4.904;2022-08-19T00:12:45;16.25;;;14.85;;
11839;SDS011;5979;50.800;4.904;2022-08-19T00:15:12;18.27;;;16.70;;
11839;SDS011;5979;50.800;4.904;2022-08-19T00:17:40;16.00;;;14.30;;
11839;SDS011;5979;50.800;4.904;2022-08-19T00:20:08;15.20;;;13.82;;
11839;SDS011;5979;50.800;4.904;2022-08-19T00:22:36;16.13;;;14.75;;
11839;SDS011;5979;50.800;4.904;2022-08-19T00:25:04;16.13;;;14.60;;
11839;SDS011;5979;50.800;4.904;2022-08-19T00:27:31;13.70;;;12.55;;
11839;SDS011;5979;50.800;4.904;2022-08-19T00:29:57;16.02;;;13.70;;
11839;SDS011;5979;50.800;4.904;2022-08-19T00:32:23;15.38;;;13.98;;
11839;SDS011;5979;50.800;4.904;2022-08-19T00:34:50;14.38;;;13.15;;
11839;SDS011;5979;50.800;4.904;2022-08-19T00:37:19;15.50;;;14.18;;
11839;SDS011;5979;50.800;4.904;2022-08-19T00:39:47;18.48;;;16.63;;
11839;SDS011;5979;50.800;4.904;2022-08-19T00:42:13;17.00;;;15.50;;
11839;SDS011;5979;50.800;4.904;2022-08-19T00:44:40;15.38;;;13.93;;
11839;SDS011;5979;50.800;4.904;2022-08-19T00:47:06;17.55;;;15.93;;
11839;SDS011;5979;50.800;4.904;2022-08-19T00:49:42;16.75;;;15.27;;
11839;SDS011;5979;50.800;4.904;2022-08-19T00:52:18;19.25;;;17.42;;
11839;SDS011;5979;50.800;4.904;2022-08-19T00:54:47;17.77;;;16.23;;
11839;SDS011;5979;50.800;4.904;2022-08-19T00:57:16;19.50;;;17.75;;
11839;SDS011;5979;50.800;4.904;2022-08-19T00:59:44;18.15;;;16.45;;
11839;SDS011;5979;50.800;4.904;2022-08-19T01:02:13;19.75;;;17.77;;
11839;SDS011;5979;50.800;4.904;2022-08-19T01:04:40;21.15;;;19.02;;
11839;SDS011;5979;50.800;4.904;2022-08-19T01:07:06;22.48;;;20.30;;
11839;SDS011;5979;50.800;4.904;2022-08-19T01:09:33;21.77;;;19.58;;
11839;SDS011;5979;50.800;4.904;2022-08-19T01:11:59;22.42;;;20.23;;
11839;SDS011;5979;50.800;4.904;2022-08-19T01:14:25;22.35;;;20.05;;
11839;SDS011;5979;50.800;4.904;2022-08-19T01:16:51;22.83;;;20.52;;
11839;SDS011;5979;50.800;4.904;2022-08-19T01:19:29;24.48;;;21.88;;
11839;SDS011;5979;50.800;4.904;2022-08-19T01:22:06;23.85;;;21.55;;
11839;SDS011;5979;50.800;4.904;2022-08-19T01:24:38;24.02;;;21.52;;
11839;SDS011;5979;50.800;4.904;2022-08-19T01:27:04;23.95;;;21.35;;
11839;SDS011;5979;50.800;4.904;2022-08-19T01:29:31;25.15;;;22.50;;
11839;SDS011;5979;50.800;4.904;2022-08-19T01:31:57;24.42;;;21.92;;
11839;SDS011;5979;50.800;4.904;2022-08-19T01:34:23;22.35;;;20.05;;
11839;SDS011;5979;50.800;4.904;2022-08-19T01:36:49;21.92;;;19.60;;
11839;SDS011;5979;50.800;4.904;2022-08-19T01:39:20;25.83;;;23.05;;
11839;SDS011;5979;50.800;4.904;2022-08-19T01:41:48;21.08;;;19.05;;
11839;SDS011;5979;50.800;4.904;2022-08-19T01:44:14;21.35;;;19.10;;
11839;SDS011;5979;50.800;4.904;2022-08-19T01:46:41;21.17;;;19.05;;
11839;SDS011;5979;50.800;4.904;2022-08-19T01:49:07;21.92;;;19.75;;
11839;SDS011;5979;50.800;4.904;2022-08-19T01:51:33;20.48;;;18.45;;
11839;SDS011;5979;50.800;4.904;2022-08-19T01:54:00;20.98;;;18.85;;
11839;SDS011;5979;50.800;4.904;2022-08-19T01:56:25;22.80;;;20.40;;
11839;SDS011;5979;50.800;4.904;2022-08-19T01:58:53;21.05;;;18.67;;
11839;SDS011;5979;50.800;4.904;2022-08-19T02:01:25;19.23;;;17.23;;
11839;SDS011;5979;50.800;4.904;2022-08-19T02:03:51;19.85;;;17.75;;
11839;SDS011;5979;50.800;4.904;2022-08-19T02:06:18;20.55;;;18.30;;
11839;SDS011;5979;50.800;4.904;2022-08-19T02:08:44;22.95;;;19.15;;
11839;SDS011;5979;50.800;4.904;2022-08-19T02:11:17;23.42;;;20.27;;
11839;SDS011;5979;50.800;4.904;2022-08-19T02:13:48;20.58;;;18.10;;
11839;SDS011;5979;50.800;4.904;2022-08-19T02:16:15;24.73;;;21.77;;
11839;SDS011;5979;50.800;4.904;2022-08-19T02:18:42;21.98;;;19.67;;
11839;SDS011;5979;50.800;4.904;2022-08-19T02:21:07;22.00;;;19.67;;
11839;SDS011;5979;50.800;4.904;2022-08-19T02:23:33;27.00;;;23.00;;
11839;SDS011;5979;50.800;4.904;2022-08-19T02:25:59;24.35;;;20.08;;
11839;SDS011;5979;50.800;4.904;2022-08-19T02:28:24;22.98;;;19.25;;
11839;SDS011;5979;50.800;4.904;2022-08-19T02:30:50;25.85;;;21.08;;
11839;SDS011;5979;50.800;4.904;2022-08-19T02:33:16;24.40;;;21.60;;
11839;SDS011;5979;50.800;4.904;2022-08-19T02:35:42;30.00;;;24.20;;
11839;SDS011;5979;50.800;4.904;2022-08-19T02:38:09;31.67;;;26.67;;
11839;SDS011;5979;50.800;4.904;2022-08-19T02:41:00;29.13;;;23.58;;
11839;SDS011;5979;50.800;4.904;2022-08-19T02:43:31;28.10;;;22.63;;
11839;SDS011;5979;50.800;4.904;2022-08-19T02:46:00;26.42;;;23.05;;
11839;SDS011;5979;50.800;4.904;2022-08-19T02:48:27;24.23;;;21.27;;
11839;SDS011;5979;50.800;4.904;2022-08-19T02:50:53;25.27;;;21.48;;
11839;SDS011;5979;50.800;4.904;2022-08-19T02:53:22;20.73;;;18.65;;
11839;SDS011;5979;50.800;4.904;2022-08-19T02:55:50;23.35;;;20.05;;
11839;SDS011;5979;50.800;4.904;2022-08-19T02:58:16;21.40;;;19.05;;
11839;SDS011;5979;50.800;4.904;2022-08-19T03:00:47;21.52;;;19.25;;
11839;SDS011;5979;50.800;4.904;2022-08-19T03:03:18;23.70;;;20.52;;
11839;SDS011;5979;50.800;4.904;2022-08-19T03:05:44;21.05;;;19.02;;
11839;SDS011;5979;50.800;4.904;2022-08-19T03:08:10;23.95;;;21.27;;
11839;SDS011;5979;50.800;4.904;2022-08-19T03:10:46;23.33;;;20.48;;
11839;SDS011;5979;50.800;4.904;2022-08-19T03:13:13;22.25;;;19.77;;
11839;SDS011;5979;50.800;4.904;2022-08-19T03:15:44;22.60;;;19.85;;
11839;SDS011;5979;50.800;4.904;2022-08-19T03:18:11;21.40;;;18.98;;
11839;SDS011;5979;50.800;4.904;2022-08-19T03:20:46;19.77;;;17.75;;
11839;SDS011;5979;50.800;4.904;2022-08-19T03:23:14;28.38;;;23.45;;
11839;SDS011;5979;50.800;4.904;2022-08-19T03:25:42;27.67;;;24.27;;
11839;SDS011;5979;50.800;4.904;2022-08-19T03:28:10;26.02;;;21.60;;
11839;SDS011;5979;50.800;4.904;2022-08-19T03:30:38;26.05;;;23.05;;
11839;SDS011;5979;50.800;4.904;2022-08-19T03:33:05;30.20;;;24.65;;
11839;SDS011;5979;50.800;4.904;2022-08-19T03:35:32;24.25;;;21.27;;
11839;SDS011;5979;50.800;4.904;2022-08-19T03:37:59;30.58;;;25.98;;
11839;SDS011;5979;50.800;4.904;2022-08-19T03:40:25;30.63;;;24.38;;
11839;SDS011;5979;50.800;4.904;2022-08-19T03:42:51;25.25;;;22.40;;
11839;SDS011;5979;50.800;4.904;2022-08-19T03:45:16;31.25;;;25.73;;
11839;SDS011;5979;50.800;4.904;2022-08-19T03:47:42;30.98;;;24.17;;
11839;SDS011;5979;50.800;4.904;2022-08-19T03:50:08;32.63;;;24.83;;
11839;SDS011;5979;50.800;4.904;2022-08-19T03:52:34;29.55;;;24.38;;
11839;SDS011;5979;50.800;4.904;2022-08-19T03:55:01;27.08;;;22.55;;
11839;SDS011;5979;50.800;4.904;2022-08-19T03:57:27;26.33;;;21.45;;
11839;SDS011;5979;50.800;4.904;2022-08-19T03:59:53;25.73;;;20.73;;
11839;SDS011;5979;50.800;4.904;2022-08-19T04:02:18;28.42;;;23.17;;
11839;SDS011;5979;50.800;4.904;2022-08-19T04:04:44;27.85;;;23.67;;
11839;SDS011;5979;50.800;4.904;2022-08-19T04:07:10;28.00;;;23.08;;
11839;SDS011;5979;50.800;4.904;2022-08-19T04:09:40;23.60;;;19.83;;
11839;SDS011;5979;50.800;4.904;2022-08-19T04:12:06;23.23;;;20.73;;
11839;SDS011;5979;50.800;4.904;2022-08-19T04:14:32;22.08;;;19.73;;
11839;SDS011;5979;50.800;4.904;2022-08-19T04:16:59;21.50;;;19.13;;
11839;SDS011;5979;50.800;4.904;2022-08-19T04:19:26;22.02;;;19.67;;
11839;SDS011;5979;50.800;4.904;2022-08-19T04:21:54;25.45;;;22.50;;
11839;SDS011;5979;50.800;4.904;2022-08-19T04:24:20;25.35;;;20.90;;
11839;SDS011;5979;50.800;4.904;2022-08-19T04:26:47;26.40;;;22.30;;
11839;SDS011;5979;50.800;4.904;2022-08-19T04:29:15;21.55;;;19.25;;
11839;SDS011;5979;50.800;4.904;2022-08-19T04:31:46;21.92;;;19.48;;
11839;SDS011;5979;50.800;4.904;2022-08-19T04:34:14;23.75;;;21.08;;
11839;SDS011;5979;50.800;4.904;2022-08-19T04:36:42;23.83;;;20.35;;
11839;SDS011;5979;50.800;4.904;2022-08-19T04:39:17;21.83;;;18.77;;
11839;SDS011;5979;50.800;4.904;2022-08-19T04:41:45;21.15;;;18.88;;
11839;SDS011;5979;50.800;4.904;2022-08-19T04:44:30;26.38;;;21.63;;
11839;SDS011;5979;50.800;4.904;2022-08-19T04:46:57;29.75;;;22.83;;
11839;SDS011;5979;50.800;4.904;2022-08-19T04:49:23;25.27;;;21.90;;
11839;SDS011;5979;50.800;4.904;2022-08-19T04:51:49;25.00;;;21.73;;
11839;SDS011;5979;50.800;4.904;2022-08-19T04:54:18;26.88;;;23.58;;
11839;SDS011;5979;50.800;4.904;2022-08-19T04:56:48;27.48;;;22.40;;
11839;SDS011;5979;50.800;4.904;2022-08-19T04:59:15;26.38;;;21.50;;
11839;SDS011;5979;50.800;4.904;2022-08-19T05:01:42;26.50;;;22.52;;
11839;SDS011;5979;50.800;4.904;2022-08-19T05:04:08;26.35;;;22.63;;
11839;SDS011;5979;50.800;4.904;2022-08-19T05:06:34;28.17;;;22.92;;
11839;SDS011;5979;50.800;4.904;2022-08-19T05:09:03;26.15;;;22.65;;
11839;SDS011;5979;50.800;4.904;2022-08-19T05:11:31;25.05;;;22.00;;
11839;SDS011;5979;50.800;4.904;2022-08-19T05:13:59;26.33;;;22.85;;
11839;SDS011;5979;50.800;4.904;2022-08-19T05:16:25;27.77;;;22.02;;
11839;SDS011;5979;50.800;4.904;2022-08-19T05:18:51;28.60;;;23.02;;
11839;SDS011;5979;50.800;4.904;2022-08-19T05:21:36;28.38;;;23.20;;
11839;SDS011;5979;50.800;4.904;2022-08-19T05:24:22;28.08;;;21.52;;
11839;SDS011;5979;50.800;4.904;2022-08-19T05:26:49;24.65;;;21.08;;
11839;SDS011;5979;50.800;4.904;2022-08-19T05:29:17;27.35;;;21.75;;
11839;SDS011;5979;50.800;4.904;2022-08-19T05:31:46;26.83;;;22.13;;
11839;SDS011;5979;50.800;4.904;2022-08-19T05:34:14;27.00;;;22.58;;
11839;SDS011;5979;50.800;4.904;2022-08-19T05:36:42;28.08;;;22.25;;
11839;SDS011;5979;50.800;4.904;2022-08-19T05:39:10;25.77;;;21.25;;
11839;SDS011;5979;50.800;4.904;2022-08-19T05:41:42;32.28;;;23.50;;
11839;SDS011;5979;50.800;4.904;2022-08-19T05:44:11;28.80;;;21.35;;
11839;SDS011;5979;50.800;4.904;2022-08-19T05:46:38;30.13;;;22.60;;
11839;SDS011;5979;50.800;4.904;2022-08-19T05:49:05;29.33;;;22.70;;
11839;SDS011;5979;50.800;4.904;2022-08-19T05:51:32;24.85;;;21.05;;
11839;SDS011;5979;50.800;4.904;2022-08-19T05:53:59;26.00;;;20.42;;
11839;SDS011;5979;50.800;4.904;2022-08-19T05:56:28;30.00;;;23.80;;
11839;SDS011;5979;50.800;4.904;2022-08-19T05:58:55;25.95;;;21.65;;
11839;SDS011;5979;50.800;4.904;2022-08-19T06:01:23;29.63;;;22.30;;
11839;SDS011;5979;50.800;4.904;2022-08-19T06:03:50;25.83;;;20.40;;
11839;SDS011;5979;50.800;4.904;2022-08-19T06:06:16;28.20;;;20.98;;
11839;SDS011;5979;50.800;4.904;2022-08-19T06:08:42;23.85;;;20.88;;
11839;SDS011;5979;50.800;4.904;2022-08-19T06:11:14;27.60;;;22.27;;
11839;SDS011;5979;50.800;4.904;2022-08-19T06:14:02;21.42;;;17.75;;
11839;SDS011;5979;50.800;4.904;2022-08-19T06:16:35;23.13;;;18.02;;
11839;SDS011;5979;50.800;4.904;2022-08-19T06:19:03;25.85;;;20.10;;
11839;SDS011;5979;50.800;4.904;2022-08-19T06:21:33;24.10;;;20.40;;
11839;SDS011;5979;50.800;4.904;2022-08-19T06:24:00;23.38;;;18.33;;
11839;SDS011;5979;50.800;4.904;2022-08-19T06:26:27;20.13;;;17.20;;
11839;SDS011;5979;50.800;4.904;2022-08-19T06:28:53;18.92;;;16.65;;
11839;SDS011;5979;50.800;4.904;2022-08-19T06:31:20;19.27;;;16.75;;
11839;SDS011;5979;50.800;4.904;2022-08-19T06:33:50;17.95;;;15.38;;
11839;SDS011;5979;50.800;4.904;2022-08-19T06:36:23;18.48;;;15.77;;
11839;SDS011;5979;50.800;4.904;2022-08-19T06:38:56;15.32;;;12.98;;
11839;SDS011;5979;50.800;4.904;2022-08-19T06:41:29;14.88;;;12.38;;
11839;SDS011;5979;50.800;4.904;2022-08-19T06:43:57;12.50;;;11.23;;
11839;SDS011;5979;50.800;4.904;2022-08-19T06:46:23;15.25;;;13.65;;
11839;SDS011;5979;50.800;4.904;2022-08-19T06:48:49;12.27;;;10.80;;
11839;SDS011;5979;50.800;4.904;2022-08-19T06:51:15;12.35;;;11.05;;
11839;SDS011;5979;50.800;4.904;2022-08-19T06:53:48;10.32;;;9.30;;
11839;SDS011;5979;50.800;4.904;2022-08-19T06:56:16;10.23;;;9.13;;
11839;SDS011;5979;50.800;4.904;2022-08-19T06:58:44;10.00;;;9.00;;
11839;SDS011;5979;50.800;4.904;2022-08-19T07:01:11;10.98;;;9.00;;
11839;SDS011;5979;50.800;4.904;2022-08-19T07:03:41;11.40;;;8.48;;
11839;SDS011;5979;50.800;4.904;2022-08-19T07:06:08;12.07;;;7.97;;
11839;SDS011;5979;50.800;4.904;2022-08-19T07:08:36;8.07;;;7.35;;
11839;SDS011;5979;50.800;4.904;2022-08-19T07:11:09;10.68;;;7.10;;
11839;SDS011;5979;50.800;4.904;2022-08-19T07:13:36;9.23;;;7.35;;
11839;SDS011;5979;50.800;4.904;2022-08-19T07:16:03;10.30;;;7.25;;
11839;SDS011;5979;50.800;4.904;2022-08-19T07:18:30;11.30;;;7.35;;
11839;SDS011;5979;50.800;4.904;2022-08-19T07:21:10;7.13;;;6.53;;
11839;SDS011;5979;50.800;4.904;2022-08-19T07:23:38;8.68;;;7.82;;
11839;SDS011;5979;50.800;4.904;2022-08-19T07:26:06;6.85;;;5.72;;
11839;SDS011;5979;50.800;4.904;2022-08-19T07:28:40;8.15;;;6.82;;
11839;SDS011;5979;50.800;4.904;2022-08-19T07:31:06;8.05;;;7.35;;
11839;SDS011;5979;50.800;4.904;2022-08-19T07:33:32;8.05;;;7.20;;
11839;SDS011;5979;50.800;4.904;2022-08-19T07:36:02;7.72;;;5.78;;
11839;SDS011;5979;50.800;4.904;2022-08-19T07:38:30;7.75;;;7.13;;
11839;SDS011;5979;50.800;4.904;2022-08-19T07:40:56;7.07;;;6.20;;
11839;SDS011;5979;50.800;4.904;2022-08-19T07:43:22;8.20;;;7.25;;
11839;SDS011;5979;50.800;4.904;2022-08-19T07:45:50;8.82;;;6.75;;
11839;SDS011;5979;50.800;4.904;2022-08-19T07:48:21;7.07;;;5.95;;
11839;SDS011;5979;50.800;4.904;2022-08-19T07:50:54;7.32;;;6.72;;
11839;SDS011;5979;50.800;4.904;2022-08-19T07:53:22;7.45;;;6.78;;
11839;SDS011;5979;50.800;4.904;2022-08-19T07:55:49;7.90;;;7.20;;
11839;SDS011;5979;50.800;4.904;2022-08-19T07:58:16;9.82;;;8.32;;
11839;SDS011;5979;50.800;4.904;2022-08-19T08:00:45;7.72;;;7.03;;
11839;SDS011;5979;50.800;4.904;2022-08-19T08:03:14;5.72;;;5.22;;
11839;SDS011;5979;50.800;4.904;2022-08-19T08:05:42;7.22;;;6.53;;
11839;SDS011;5979;50.800;4.904;2022-08-19T08:08:27;6.57;;;5.97;;
11839;SDS011;5979;50.800;4.904;2022-08-19T08:11:12;6.70;;;6.03;;
11839;SDS011;5979;50.800;4.904;2022-08-19T08:13:42;8.05;;;6.50;;
11839;SDS011;5979;50.800;4.904;2022-08-19T08:16:07;7.32;;;5.53;;
11839;SDS011;5979;50.800;4.904;2022-08-19T08:18:33;7.00;;;5.78;;
11839;SDS011;5979;50.800;4.904;2022-08-19T08:21:06;7.13;;;6.47;;
11839;SDS011;5979;50.800;4.904;2022-08-19T08:23:32;6.97;;;5.70;;
11839;SDS011;5979;50.800;4.904;2022-08-19T08:25:57;6.35;;;5.68;;
11839;SDS011;5979;50.800;4.904;2022-08-19T08:28:24;9.18;;;6.55;;
11839;SDS011;5979;50.800;4.904;2022-08-19T08:30:52;5.85;;;5.25;;
11839;SDS011;5979;50.800;4.904;2022-08-19T08:33:19;7.10;;;5.10;;
11839;SDS011;5979;50.800;4.904;2022-08-19T08:35:47;6.82;;;4.72;;
11839;SDS011;5979;50.800;4.904;2022-08-19T08:38:13;7.32;;;4.75;;
11839;SDS011;5979;50.800;4.904;2022-08-19T08:43:18;5.55;;;5.15;;
11839;SDS011;5979;50.800;4.904;2022-08-19T08:46:13;8.23;;;5.50;;
11839;SDS011;5979;50.800;4.904;2022-08-19T08:51:59;6.32;;;5.30;;
11839;SDS011;5979;50.800;4.904;2022-08-19T08:54:18;5.38;;;4.85;;
11839;SDS011;5979;50.800;4.904;2022-08-19T08:56:45;5.22;;;4.75;;
11839;SDS011;5979;50.800;4.904;2022-08-19T08:59:30;4.88;;;4.47;;
11839;SDS011;5979;50.800;4.904;2022-08-19T09:01:59;3.70;;;3.40;;
11839;SDS011;5979;50.800;4.904;2022-08-19T09:04:25;3.85;;;3.53;;
11839;SDS011;5979;50.800;4.904;2022-08-19T09:07:14;4.38;;;3.97;;
11839;SDS011;5979;50.800;4.904;2022-08-19T09:09:51;4.75;;;4.35;;
11839;SDS011;5979;50.800;4.904;2022-08-19T09:12:26;4.65;;;3.85;;
11839;SDS011;5979;50.800;4.904;2022-08-19T09:15:05;6.93;;;3.75;;
11839;SDS011;5979;50.800;4.904;2022-08-19T09:17:33;5.07;;;4.68;;
11839;SDS011;5979;50.800;4.904;2022-08-19T09:20:01;4.53;;;4.13;;
11839;SDS011;5979;50.800;4.904;2022-08-19T09:22:35;4.88;;;3.78;;
11839;SDS011;5979;50.800;4.904;2022-08-19T09:25:02;5.75;;;3.55;;
11839;SDS011;5979;50.800;4.904;2022-08-19T09:27:29;5.60;;;4.47;;
11839;SDS011;5979;50.800;4.904;2022-08-19T09:29:57;5.53;;;4.93;;
11839;SDS011;5979;50.800;4.904;2022-08-19T09:32:23;4.32;;;3.92;;
11839;SDS011;5979;50.800;4.904;2022-08-19T09:34:51;4.85;;;4.13;;
11839;SDS011;5979;50.800;4.904;2022-08-19T09:37:19;5.32;;;4.22;;
11839;SDS011;5979;50.800;4.904;2022-08-19T09:39:46;4.78;;;4.38;;
11839;SDS011;5979;50.800;4.904;2022-08-19T09:42:12;4.38;;;4.07;;
11839;SDS011;5979;50.800;4.904;2022-08-19T09:44:39;5.50;;;5.10;;
11839;SDS011;5979;50.800;4.904;2022-08-19T09:47:06;6.30;;;4.57;;
11839;SDS011;5979;50.800;4.904;2022-08-19T09:49:33;5.28;;;4.75;;
11839;SDS011;5979;50.800;4.904;2022-08-19T09:51:59;5.05;;;4.57;;
11839;SDS011;5979;50.800;4.904;2022-08-19T09:54:25;4.28;;;3.97;;
11839;SDS011;5979;50.800;4.904;2022-08-19T09:56:55;5.03;;;4.63;;
11839;SDS011;5979;50.800;4.904;2022-08-19T09:59:23;4.80;;;4.40;;
11839;SDS011;5979;50.800;4.904;2022-08-19T10:01:49;6.80;;;5.20;;
11839;SDS011;5979;50.800;4.904;2022-08-19T10:04:16;4.35;;;3.95;;
11839;SDS011;5979;50.800;4.904;2022-08-19T10:06:41;5.05;;;4.40;;
11839;SDS011;5979;50.800;4.904;2022-08-19T10:09:08;4.82;;;4.43;;
11839;SDS011;5979;50.800;4.904;2022-08-19T10:11:36;4.97;;;4.53;;
11839;SDS011;5979;50.800;4.904;2022-08-19T10:14:04;5.55;;;4.50;;
11839;SDS011;5979;50.800;4.904;2022-08-19T10:16:31;4.20;;;3.90;;
11839;SDS011;5979;50.800;4.904;2022-08-19T10:18:57;4.60;;;4.18;;
11839;SDS011;5979;50.800;4.904;2022-08-19T10:21:24;4.72;;;4.40;;
11839;SDS011;5979;50.800;4.904;2022-08-19T10:23:53;3.80;;;3.50;;
11839;SDS011;5979;50.800;4.904;2022-08-19T10:26:24;3.78;;;3.58;;
11839;SDS011;5979;50.800;4.904;2022-08-19T10:28:52;4.03;;;3.70;;
11839;SDS011;5979;50.800;4.904;2022-08-19T10:31:19;4.45;;;3.88;;
11839;SDS011;5979;50.800;4.904;2022-08-19T10:33:48;4.30;;;3.90;;
11839;SDS011;5979;50.800;4.904;2022-08-19T10:36:15;3.90;;;3.60;;
11839;SDS011;5979;50.800;4.904;2022-08-19T10:38:43;4.65;;;3.55;;
11839;SDS011;5979;50.800;4.904;2022-08-19T10:41:12;3.70;;;3.40;;
11839;SDS011;5979;50.800;4.904;2022-08-19T10:43:40;3.33;;;3.03;;
11839;SDS011;5979;50.800;4.904;2022-08-19T10:46:09;3.22;;;3.03;;
11839;SDS011;5979;50.800;4.904;2022-08-19T10:48:38;3.28;;;2.72;;
11839;SDS011;5979;50.800;4.904;2022-08-19T10:51:04;2.85;;;2.75;;
11839;SDS011;5979;50.800;4.904;2022-08-19T10:53:48;3.22;;;2.92;;
11839;SDS011;5979;50.800;4.904;2022-08-19T10:56:14;3.65;;;3.33;;
11839;SDS011;5979;50.800;4.904;2022-08-19T10:58:59;3.60;;;3.17;;
11839;SDS011;5979;50.800;4.904;2022-08-19T11:01:25;4.22;;;3.08;;
11839;SDS011;5979;50.800;4.904;2022-08-19T11:03:51;2.90;;;2.78;;
11839;SDS011;5979;50.800;4.904;2022-08-19T11:06:17;3.75;;;3.55;;
11839;SDS011;5979;50.800;4.904;2022-08-19T11:08:44;2.75;;;2.65;;
11839;SDS011;5979;50.800;4.904;2022-08-19T11:11:11;3.20;;;3.00;;
11839;SDS011;5979;50.800;4.904;2022-08-19T11:13:38;3.95;;;3.30;;
11839;SDS011;5979;50.800;4.904;2022-08-19T11:16:10;3.85;;;3.63;;
11839;SDS011;5979;50.800;4.904;2022-08-19T11:18:39;3.47;;;2.83;;
11839;SDS011;5979;50.800;4.904;2022-08-19T11:21:09;3.42;;;3.17;;
11839;SDS011;5979;50.800;4.904;2022-08-19T11:23:42;2.80;;;2.60;;
11839;SDS011;5979;50.800;4.904;2022-08-19T11:26:08;3.20;;;3.00;;
11839;SDS011;5979;50.800;4.904;2022-08-19T11:28:34;3.70;;;2.88;;
11839;SDS011;5979;50.800;4.904;2022-08-19T11:31:00;2.88;;;2.67;;
11839;SDS011;5979;50.800;4.904;2022-08-19T11:33:28;3.30;;;3.00;;
11839;SDS011;5979;50.800;4.904;2022-08-19T11:35:56;3.15;;;2.67;;
11839;SDS011;5979;50.800;4.904;2022-08-19T11:38:23;2.70;;;2.50;;
11839;SDS011;5979;50.800;4.904;2022-08-19T11:40:58;3.05;;;2.85;;
11839;SDS011;5979;50.800;4.904;2022-08-19T11:43:25;2.75;;;2.55;;
11839;SDS011;5979;50.800;4.904;2022-08-19T11:45:55;2.42;;;2.30;;
11839;SDS011;5979;50.800;4.904;2022-08-19T11:48:21;3.15;;;2.95;;
11839;SDS011;5979;50.800;4.904;2022-08-19T11:50:51;3.80;;;2.35;;
11839;SDS011;5979;50.800;4.904;2022-08-19T11:53:20;3.25;;;2.90;;
11839;SDS011;5979;50.800;4.904;2022-08-19T11:55:46;3.40;;;2.90;;
11839;SDS011;5979;50.800;4.904;2022-08-19T11:58:12;2.88;;;2.67;;
11839;SDS011;5979;50.800;4.904;2022-08-19T12:00:40;3.17;;;2.97;;
11839;SDS011;5979;50.800;4.904;2022-08-19T12:03:06;3.17;;;2.97;;
11839;SDS011;5979;50.800;4.904;2022-08-19T12:05:32;2.88;;;2.47;;
11839;SDS011;5979;50.800;4.904;2022-08-19T12:07:58;2.60;;;2.40;;
11839;SDS011;5979;50.800;4.904;2022-08-19T12:10:24;3.97;;;2.90;;
11839;SDS011;5979;50.800;4.904;2022-08-19T12:12:50;2.85;;;2.60;;
11839;SDS011;5979;50.800;4.904;2022-08-19T12:15:15;3.03;;;2.85;;
11839;SDS011;5979;50.800;4.904;2022-08-19T12:17:41;3.20;;;2.90;;
11839;SDS011;5979;50.800;4.904;2022-08-19T12:20:08;3.58;;;3.28;;
11839;SDS011;5979;50.800;4.904;2022-08-19T12:22:35;3.22;;;3.03;;
11839;SDS011;5979;50.800;4.904;2022-08-19T12:25:02;3.58;;;3.38;;
11839;SDS011;5979;50.800;4.904;2022-08-19T12:27:29;3.50;;;3.30;;
11839;SDS011;5979;50.800;4.904;2022-08-19T12:29:55;4.63;;;3.38;;
11839;SDS011;5979;50.800;4.904;2022-08-19T12:32:21;3.60;;;3.40;;
11839;SDS011;5979;50.800;4.904;2022-08-19T12:34:49;3.78;;;3.42;;
11839;SDS011;5979;50.800;4.904;2022-08-19T12:37:15;3.88;;;3.67;;
11839;SDS011;5979;50.800;4.904;2022-08-19T12:39:42;4.45;;;3.72;;
11839;SDS011;5979;50.800;4.904;2022-08-19T12:42:08;3.08;;;2.97;;
11839;SDS011;5979;50.800;4.904;2022-08-19T12:44:36;4.47;;;4.18;;
11839;SDS011;5979;50.800;4.904;2022-08-19T12:47:04;4.70;;;4.40;;
11839;SDS011;5979;50.800;4.904;2022-08-19T12:49:31;6.03;;;4.70;;
11839;SDS011;5979;50.800;4.904;2022-08-19T12:52:02;4.57;;;4.18;;
11839;SDS011;5979;50.800;4.904;2022-08-19T12:54:29;4.38;;;4.18;;
11839;SDS011;5979;50.800;4.904;2022-08-19T12:56:56;6.40;;;4.50;;
11839;SDS011;5979;50.800;4.904;2022-08-19T12:59:23;4.07;;;3.85;;
11839;SDS011;5979;50.800;4.904;2022-08-19T13:01:48;5.10;;;4.60;;
11839;SDS011;5979;50.800;4.904;2022-08-19T13:04:14;5.22;;;4.88;;
11839;SDS011;5979;50.800;4.904;2022-08-19T13:06:41;4.38;;;4.07;;
11839;SDS011;5979;50.800;4.904;2022-08-19T13:09:07;5.22;;;4.53;;
11839;SDS011;5979;50.800;4.904;2022-08-19T13:11:33;5.45;;;5.05;;
11839;SDS011;5979;50.800;4.904;2022-08-19T13:13:59;5.70;;;4.70;;
11839;SDS011;5979;50.800;4.904;2022-08-19T13:16:26;4.22;;;4.03;;
11839;SDS011;5979;50.800;4.904;2022-08-19T13:18:53;5.18;;;4.80;;
11839;SDS011;5979;50.800;4.904;2022-08-19T13:21:21;4.07;;;3.88;;
11839;SDS011;5979;50.800;4.904;2022-08-19T13:23:48;3.97;;;3.65;;
11839;SDS011;5979;50.800;4.904;2022-08-19T13:26:14;4.75;;;4.32;;
11839;SDS011;5979;50.800;4.904;2022-08-19T13:28:41;4.22;;;3.83;;
11839;SDS011;5979;50.800;4.904;2022-08-19T13:31:27;3.85;;;3.58;;
11839;SDS011;5979;50.800;4.904;2022-08-19T13:34:13;3.72;;;3.50;;
11839;SDS011;5979;50.800;4.904;2022-08-19T13:36:39;3.78;;;3.58;;
11839;SDS011;5979;50.800;4.904;2022-08-19T13:39:06;3.78;;;3.47;;
11839;SDS011;5979;50.800;4.904;2022-08-19T13:41:33;3.45;;;3.33;;
11839;SDS011;5979;50.800;4.904;2022-08-19T13:43:59;3.80;;;3.60;;
11839;SDS011;5979;50.800;4.904;2022-08-19T13:46:25;3.22;;;3.03;;
11839;SDS011;5979;50.800;4.904;2022-08-19T13:48:52;4.18;;;3.88;;
11839;SDS011;5979;50.800;4.904;2022-08-19T13:51:17;3.85;;;3.65;;
11839;SDS011;5979;50.800;4.904;2022-08-19T13:53:44;3.90;;;3.60;;
11839;SDS011;5979;50.800;4.904;2022-08-19T13:56:11;4.50;;;4.20;;
11839;SDS011;5979;50.800;4.904;2022-08-19T13:58:38;4.38;;;4.07;;
11839;SDS011;5979;50.800;4.904;2022-08-19T14:01:05;4.70;;;4.13;;
11839;SDS011;5979;50.800;4.904;2022-08-19T14:03:31;3.65;;;3.38;;
11839;SDS011;5979;50.800;4.904;2022-08-19T14:05:58;3.78;;;3.47;;
11839;SDS011;5979;50.800;4.904;2022-08-19T14:08:24;4.18;;;3.90;;
11839;SDS011;5979;50.800;4.904;2022-08-19T14:10:50;3.65;;;3.30;;
11839;SDS011;5979;50.800;4.904;2022-08-19T14:13:17;3.55;;;3.33;;
11839;SDS011;5979;50.800;4.904;2022-08-19T14:15:45;3.08;;;2.88;;
11839;SDS011;5979;50.800;4.904;2022-08-19T14:18:12;2.50;;;2.40;;
11839;SDS011;5979;50.800;4.904;2022-08-19T14:20:38;2.50;;;2.40;;
11839;SDS011;5979;50.800;4.904;2022-08-19T14:23:04;2.40;;;2.28;;
11839;SDS011;5979;50.800;4.904;2022-08-19T14:25:32;2.42;;;2.20;;
11839;SDS011;5979;50.800;4.904;2022-08-19T14:27:59;2.17;;;1.95;;
11839;SDS011;5979;50.800;4.904;2022-08-19T14:30:30;2.35;;;2.25;;
11839;SDS011;5979;50.800;4.904;2022-08-19T14:32:58;2.45;;;2.25;;
11839;SDS011;5979;50.800;4.904;2022-08-19T14:35:25;2.58;;;2.28;;
11839;SDS011;5979;50.800;4.904;2022-08-19T14:37:51;2.45;;;2.30;;
11839;SDS011;5979;50.800;4.904;2022-08-19T14:40:23;2.83;;;2.70;;
11839;SDS011;5979;50.800;4.904;2022-08-19T14:42:51;3.08;;;2.88;;
11839;SDS011;5979;50.800;4.904;2022-08-19T14:45:20;3.58;;;3.28;;
11839;SDS011;5979;50.800;4.904;2022-08-19T14:47:46;3.38;;;3.17;;
11839;SDS011;5979;50.800;4.904;2022-08-19T14:50:11;3.65;;;3.45;;
11839;SDS011;5979;50.800;4.904;2022-08-19T14:52:38;3.80;;;3.50;;
11839;SDS011;5979;50.800;4.904;2022-08-19T14:55:05;2.85;;;2.75;;
11839;SDS011;5979;50.800;4.904;2022-08-19T14:57:30;3.47;;;3.17;;
11839;SDS011;5979;50.800;4.904;2022-08-19T14:59:56;3.25;;;3.05;;